sensor_id;sensor_type;location;lat;lon;timestamp;temperature;humidity
16402;DHT22;8310;44.626;11.176;2023-07-16T00:00:49;28.70;50.90
16402;DHT22;8310;44.626;11.176;2023-07-16T00:03:16;28.70;51.00
16402;DHT22;8310;44.626;11.176;2023-07-16T00:05:44;28.70;51.10
16402;DHT22;8310;44.626;11.176;2023-07-16T00:08:11;28.60;51.00
16402;DHT22;8310;44.626;11.176;2023-07-16T00:10:38;28.60;51.00
16402;DHT22;8310;44.626;11.176;2023-07-16T00:13:07;28.60;51.00
16402;DHT22;8310;44.626;11.176;2023-07-16T00:15:35;28.50;51.10
16402;DHT22;8310;44.626;11.176;2023-07-16T00:18:02;28.50;51.10
16402;DHT22;8310;44.626;11.176;2023-07-16T00:20:31;28.50;51.10
16402;DHT22;8310;44.626;11.176;2023-07-16T00:22:58;28.50;51.10
16402;DHT22;8310;44.626;11.176;2023-07-16T00:25:25;28.40;51.10
16402;DHT22;8310;44.626;11.176;2023-07-16T00:27:54;28.40;51.10
16402;DHT22;8310;44.626;11.176;2023-07-16T00:30:23;28.40;51.10
16402;DHT22;8310;44.626;11.176;2023-07-16T00:32:50;28.30;51.70
16402;DHT22;8310;44.626;11.176;2023-07-16T00:35:17;28.30;51.10
16402;DHT22;8310;44.626;11.176;2023-07-16T00:37:45;28.20;51.10
16402;DHT22;8310;44.626;11.176;2023-07-16T00:40:12;28.20;51.10
16402;DHT22;8310;44.626;11.176;2023-07-16T00:42:39;28.10;51.10
16402;DHT22;8310;44.626;11.176;2023-07-16T00:45:09;28.10;51.10
16402;DHT22;8310;44.626;11.176;2023-07-16T00:47:38;28.00;51.70
16402;DHT22;8310;44.626;11.176;2023-07-16T00:50:06;28.00;51.00
16402;DHT22;8310;44.626;11.176;2023-07-16T00:52:34;28.00;51.00
16402;DHT22;8310;44.626;11.176;2023-07-16T00:55:02;27.90;50.90
16402;DHT22;8310;44.626;11.176;2023-07-16T00:57:29;27.70;50.80
16402;DHT22;8310;44.626;11.176;2023-07-16T00:59:57;27.60;50.90
16402;DHT22;8310;44.626;11.176;2023-07-16T01:02:25;27.60;51.00
16402;DHT22;8310;44.626;11.176;2023-07-16T01:04:54;27.60;51.10
16402;DHT22;8310;44.626;11.176;2023-07-16T01:07:21;27.60;51.20
16402;DHT22;8310;44.626;11.176;2023-07-16T01:09:50;27.60;51.20
16402;DHT22;8310;44.626;11.176;2023-07-16T01:12:18;27.60;51.20
16402;DHT22;8310;44.626;11.176;2023-07-16T01:14:47;27.60;51.20
16402;DHT22;8310;44.626;11.176;2023-07-16T01:17:15;27.60;51.20
16402;DHT22;8310;44.626;11.176;2023-07-16T01:19:42;27.60;51.20
16402;DHT22;8310;44.626;11.176;2023-07-16T01:22:16;27.50;51.10
16402;DHT22;8310;44.626;11.176;2023-07-16T01:24:55;27.50;51.20
16402;DHT22;8310;44.626;11.176;2023-07-16T01:27:35;27.40;51.20
16402;DHT22;8310;44.626;11.176;2023-07-16T01:30:05;27.40;51.20
16402;DHT22;8310;44.626;11.176;2023-07-16T01:32:39;27.40;51.30
16402;DHT22;8310;44.626;11.176;2023-07-16T01:35:07;27.40;51.20
16402;DHT22;8310;44.626;11.176;2023-07-16T01:37:35;27.40;51.30
16402;DHT22;8310;44.626;11.176;2023-07-16T01:40:02;27.30;51.20
16402;DHT22;8310;44.626;11.176;2023-07-16T01:42:29;27.30;51.10
16402;DHT22;8310;44.626;11.176;2023-07-16T01:44:57;27.20;51.10
16402;DHT22;8310;44.626;11.176;2023-07-16T01:47:40;27.20;51.10
16402;DHT22;8310;44.626;11.176;2023-07-16T01:50:13;27.20;51.20
16402;DHT22;8310;44.626;11.176;2023-07-16T01:52:43;27.10;51.30
16402;DHT22;8310;44.626;11.176;2023-07-16T01:55:11;27.10;51.30
16402;DHT22;8310;44.626;11.176;2023-07-16T01:57:38;27.10;51.40
16402;DHT22;8310;44.626;11.176;2023-07-16T02:00:06;27.10;51.50
16402;DHT22;8310;44.626;11.176;2023-07-16T02:02:35;27.10;51.50
16402;DHT22;8310;44.626;11.176;2023-07-16T02:05:02;27.20;52.20
16402;DHT22;8310;44.626;11.176;2023-07-16T02:07:29;27.10;51.50
16402;DHT22;8310;44.626;11.176;2023-07-16T02:09:57;27.10;51.50
16402;DHT22;8310;44.626;11.176;2023-07-16T02:12:24;27.10;51.50
16402;DHT22;8310;44.626;11.176;2023-07-16T02:14:51;27.10;51.40
16402;DHT22;8310;44.626;11.176;2023-07-16T02:17:19;27.00;51.40
16402;DHT22;8310;44.626;11.176;2023-07-16T02:19:47;27.00;52.10
16402;DHT22;8310;44.626;11.176;2023-07-16T02:22:14;27.00;51.50
16402;DHT22;8310;44.626;11.176;2023-07-16T02:24:42;27.00;51.50
16402;DHT22;8310;44.626;11.176;2023-07-16T02:27:09;27.00;51.50
16402;DHT22;8310;44.626;11.176;2023-07-16T02:29:36;26.90;51.50
16402;DHT22;8310;44.626;11.176;2023-07-16T02:32:03;26.90;51.50
16402;DHT22;8310;44.626;11.176;2023-07-16T02:34:31;26.90;51.50
16402;DHT22;8310;44.626;11.176;2023-07-16T02:36:59;26.80;51.40
16402;DHT22;8310;44.626;11.176;2023-07-16T02:39:26;26.80;51.30
16402;DHT22;8310;44.626;11.176;2023-07-16T02:41:53;26.60;51.20
16402;DHT22;8310;44.626;11.176;2023-07-16T02:44:21;26.50;51.20
16402;DHT22;8310;44.626;11.176;2023-07-16T02:46:48;26.40;51.20
16402;DHT22;8310;44.626;11.176;2023-07-16T02:49:15;26.30;51.30
16402;DHT22;8310;44.626;11.176;2023-07-16T02:51:43;26.30;51.40
16402;DHT22;8310;44.626;11.176;2023-07-16T02:54:12;26.30;51.40
16402;DHT22;8310;44.626;11.176;2023-07-16T02:56:42;26.20;51.40
16402;DHT22;8310;44.626;11.176;2023-07-16T02:59:09;26.20;51.50
16402;DHT22;8310;44.626;11.176;2023-07-16T03:01:37;26.20;51.50
16402;DHT22;8310;44.626;11.176;2023-07-16T03:04:04;26.20;51.40
16402;DHT22;8310;44.626;11.176;2023-07-16T03:06:31;26.10;51.20
16402;DHT22;8310;44.626;11.176;2023-07-16T03:08:58;26.00;51.20
16402;DHT22;8310;44.626;11.176;2023-07-16T03:11:27;26.00;51.40
16402;DHT22;8310;44.626;11.176;2023-07-16T03:13:55;25.90;51.40
16402;DHT22;8310;44.626;11.176;2023-07-16T03:16:22;25.90;51.50
16402;DHT22;8310;44.626;11.176;2023-07-16T03:18:49;25.90;51.60
16402;DHT22;8310;44.626;11.176;2023-07-16T03:21:17;25.90;51.60
16402;DHT22;8310;44.626;11.176;2023-07-16T03:23:44;25.90;51.70
16402;DHT22;8310;44.626;11.176;2023-07-16T03:26:11;25.90;51.70
16402;DHT22;8310;44.626;11.176;2023-07-16T03:28:41;25.90;51.70
16402;DHT22;8310;44.626;11.176;2023-07-16T03:31:08;26.00;51.70
16402;DHT22;8310;44.626;11.176;2023-07-16T03:33:36;25.90;51.70
16402;DHT22;8310;44.626;11.176;2023-07-16T03:36:03;25.90;51.70
16402;DHT22;8310;44.626;11.176;2023-07-16T03:38:31;25.90;51.70
16402;DHT22;8310;44.626;11.176;2023-07-16T03:40:57;25.90;51.80
16402;DHT22;8310;44.626;11.176;2023-07-16T03:43:25;25.90;51.80
16402;DHT22;8310;44.626;11.176;2023-07-16T03:45:53;26.00;52.00
16402;DHT22;8310;44.626;11.176;2023-07-16T03:48:21;26.00;52.00
16402;DHT22;8310;44.626;11.176;2023-07-16T03:50:48;26.00;52.00
16402;DHT22;8310;44.626;11.176;2023-07-16T03:53:15;26.00;52.00
16402;DHT22;8310;44.626;11.176;2023-07-16T03:55:43;26.00;51.80
16402;DHT22;8310;44.626;11.176;2023-07-16T03:58:11;26.00;51.70
16402;DHT22;8310;44.626;11.176;2023-07-16T04:00:38;26.00;51.80
16402;DHT22;8310;44.626;11.176;2023-07-16T04:03:07;25.90;51.70
16402;DHT22;8310;44.626;11.176;2023-07-16T04:05:34;25.80;51.60
16402;DHT22;8310;44.626;11.176;2023-07-16T04:08:01;25.80;51.70
16402;DHT22;8310;44.626;11.176;2023-07-16T04:10:29;25.70;51.60
16402;DHT22;8310;44.626;11.176;2023-07-16T04:12:56;25.70;51.60
16402;DHT22;8310;44.626;11.176;2023-07-16T04:15:24;25.60;51.60
16402;DHT22;8310;44.626;11.176;2023-07-16T04:17:51;25.60;51.70
16402;DHT22;8310;44.626;11.176;2023-07-16T04:20:20;25.50;51.70
16402;DHT22;8310;44.626;11.176;2023-07-16T04:22:48;25.50;51.80
16402;DHT22;8310;44.626;11.176;2023-07-16T04:25:15;25.50;51.90
16402;DHT22;8310;44.626;11.176;2023-07-16T04:27:44;25.50;51.90
16402;DHT22;8310;44.626;11.176;2023-07-16T04:30:11;25.50;52.00
16402;DHT22;8310;44.626;11.176;2023-07-16T04:32:39;25.50;52.00
16402;DHT22;8310;44.626;11.176;2023-07-16T04:35:06;25.50;52.10
16402;DHT22;8310;44.626;11.176;2023-07-16T04:37:35;25.60;52.30
16402;DHT22;8310;44.626;11.176;2023-07-16T04:40:03;25.70;52.40
16402;DHT22;8310;44.626;11.176;2023-07-16T04:42:31;25.70;52.50
16402;DHT22;8310;44.626;11.176;2023-07-16T04:44:58;25.80;52.60
16402;DHT22;8310;44.626;11.176;2023-07-16T04:47:26;25.90;52.70
16402;DHT22;8310;44.626;11.176;2023-07-16T04:49:54;26.00;52.80
16402;DHT22;8310;44.626;11.176;2023-07-16T04:52:21;26.10;52.90
16402;DHT22;8310;44.626;11.176;2023-07-16T04:54:50;26.20;53.00
16402;DHT22;8310;44.626;11.176;2023-07-16T04:57:17;26.30;53.10
16402;DHT22;8310;44.626;11.176;2023-07-16T04:59:45;26.40;53.20
16402;DHT22;8310;44.626;11.176;2023-07-16T05:02:12;26.50;53.30
16402;DHT22;8310;44.626;11.176;2023-07-16T05:04:40;26.60;53.30
16402;DHT22;8310;44.626;11.176;2023-07-16T05:07:09;26.70;53.30
16402;DHT22;8310;44.626;11.176;2023-07-16T05:09:36;26.80;53.40
16402;DHT22;8310;44.626;11.176;2023-07-16T05:12:06;26.90;53.60
16402;DHT22;8310;44.626;11.176;2023-07-16T05:14:42;27.00;53.70
16402;DHT22;8310;44.626;11.176;2023-07-16T05:17:09;27.10;53.70
16402;DHT22;8310;44.626;11.176;2023-07-16T05:19:37;27.20;53.70
16402;DHT22;8310;44.626;11.176;2023-07-16T05:22:04;27.30;53.70
16402;DHT22;8310;44.626;11.176;2023-07-16T05:24:33;27.30;53.70
16402;DHT22;8310;44.626;11.176;2023-07-16T05:27:02;27.40;53.60
16402;DHT22;8310;44.626;11.176;2023-07-16T05:29:31;27.40;53.40
16402;DHT22;8310;44.626;11.176;2023-07-16T05:31:58;27.40;53.50
16402;DHT22;8310;44.626;11.176;2023-07-16T05:34:26;27.50;53.70
16402;DHT22;8310;44.626;11.176;2023-07-16T05:36:53;27.50;53.80
16402;DHT22;8310;44.626;11.176;2023-07-16T05:39:21;27.70;54.00
16402;DHT22;8310;44.626;11.176;2023-07-16T05:41:48;27.80;54.10
16402;DHT22;8310;44.626;11.176;2023-07-16T05:44:16;27.90;54.20
16402;DHT22;8310;44.626;11.176;2023-07-16T05:46:45;28.00;54.20
16402;DHT22;8310;44.626;11.176;2023-07-16T05:49:12;28.10;54.10
16402;DHT22;8310;44.626;11.176;2023-07-16T05:51:40;28.20;54.20
16402;DHT22;8310;44.626;11.176;2023-07-16T05:54:09;28.30;54.30
16402;DHT22;8310;44.626;11.176;2023-07-16T05:56:36;28.30;54.30
16402;DHT22;8310;44.626;11.176;2023-07-16T05:59:04;28.40;54.50
16402;DHT22;8310;44.626;11.176;2023-07-16T06:01:34;28.50;54.50
16402;DHT22;8310;44.626;11.176;2023-07-16T06:04:03;28.70;54.70
16402;DHT22;8310;44.626;11.176;2023-07-16T06:06:31;28.80;54.70
16402;DHT22;8310;44.626;11.176;2023-07-16T06:08:58;28.90;54.70
16402;DHT22;8310;44.626;11.176;2023-07-16T06:11:25;29.00;54.80
16402;DHT22;8310;44.626;11.176;2023-07-16T06:13:53;29.10;54.80
16402;DHT22;8310;44.626;11.176;2023-07-16T06:16:20;29.20;54.80
16402;DHT22;8310;44.626;11.176;2023-07-16T06:18:47;29.30;54.80
16402;DHT22;8310;44.626;11.176;2023-07-16T06:21:16;29.40;54.90
16402;DHT22;8310;44.626;11.176;2023-07-16T06:23:44;29.50;54.90
16402;DHT22;8310;44.626;11.176;2023-07-16T06:26:11;29.60;55.00
16402;DHT22;8310;44.626;11.176;2023-07-16T06:28:38;29.70;55.00
16402;DHT22;8310;44.626;11.176;2023-07-16T06:31:05;29.80;55.10
16402;DHT22;8310;44.626;11.176;2023-07-16T06:33:35;29.90;55.10
16402;DHT22;8310;44.626;11.176;2023-07-16T06:36:02;30.00;55.20
16402;DHT22;8310;44.626;11.176;2023-07-16T06:38:31;30.10;55.20
16402;DHT22;8310;44.626;11.176;2023-07-16T06:41:00;30.20;55.20
16402;DHT22;8310;44.626;11.176;2023-07-16T06:43:27;30.30;55.20
16402;DHT22;8310;44.626;11.176;2023-07-16T06:45:55;30.40;55.30
16402;DHT22;8310;44.626;11.176;2023-07-16T06:48:22;30.60;55.30
16402;DHT22;8310;44.626;11.176;2023-07-16T06:50:49;30.70;55.40
16402;DHT22;8310;44.626;11.176;2023-07-16T06:53:17;30.80;55.40
16402;DHT22;8310;44.626;11.176;2023-07-16T06:55:46;31.00;55.40
16402;DHT22;8310;44.626;11.176;2023-07-16T06:58:13;31.10;55.30
16402;DHT22;8310;44.626;11.176;2023-07-16T07:00:41;31.10;55.10
16402;DHT22;8310;44.626;11.176;2023-07-16T07:03:08;31.20;55.20
16402;DHT22;8310;44.626;11.176;2023-07-16T07:05:35;31.30;55.30
16402;DHT22;8310;44.626;11.176;2023-07-16T07:08:02;31.40;55.50
16402;DHT22;8310;44.626;11.176;2023-07-16T07:10:30;31.50;55.50
16402;DHT22;8310;44.626;11.176;2023-07-16T07:12:59;31.60;55.60
16402;DHT22;8310;44.626;11.176;2023-07-16T07:15:26;31.80;55.70
16402;DHT22;8310;44.626;11.176;2023-07-16T07:17:54;31.90;55.70
16402;DHT22;8310;44.626;11.176;2023-07-16T07:20:21;32.10;55.70
16402;DHT22;8310;44.626;11.176;2023-07-16T07:22:48;32.20;55.70
16402;DHT22;8310;44.626;11.176;2023-07-16T07:25:16;32.30;55.70
16402;DHT22;8310;44.626;11.176;2023-07-16T07:27:43;32.30;55.70
16402;DHT22;8310;44.626;11.176;2023-07-16T07:30:12;32.50;55.80
16402;DHT22;8310;44.626;11.176;2023-07-16T07:32:41;32.60;55.80
16402;DHT22;8310;44.626;11.176;2023-07-16T07:35:08;32.70;55.90
16402;DHT22;8310;44.626;11.176;2023-07-16T07:37:36;32.80;55.80
16402;DHT22;8310;44.626;11.176;2023-07-16T07:40:03;32.90;55.80
16402;DHT22;8310;44.626;11.176;2023-07-16T07:42:31;33.00;55.80
16402;DHT22;8310;44.626;11.176;2023-07-16T07:44:58;33.10;55.80
16402;DHT22;8310;44.626;11.176;2023-07-16T07:47:27;33.10;55.70
16402;DHT22;8310;44.626;11.176;2023-07-16T07:49:54;33.20;56.40
16402;DHT22;8310;44.626;11.176;2023-07-16T07:52:21;33.30;55.90
16402;DHT22;8310;44.626;11.176;2023-07-16T07:54:48;33.50;56.00
16402;DHT22;8310;44.626;11.176;2023-07-16T07:57:16;33.50;55.90
16402;DHT22;8310;44.626;11.176;2023-07-16T07:59:43;33.70;56.00
16402;DHT22;8310;44.626;11.176;2023-07-16T08:02:10;33.70;55.90
16402;DHT22;8310;44.626;11.176;2023-07-16T08:04:39;33.80;55.90
16402;DHT22;8310;44.626;11.176;2023-07-16T08:07:06;33.90;56.00
16402;DHT22;8310;44.626;11.176;2023-07-16T08:09:34;34.00;56.00
16402;DHT22;8310;44.626;11.176;2023-07-16T08:12:04;34.10;56.00
16402;DHT22;8310;44.626;11.176;2023-07-16T08:14:31;34.20;56.10
16402;DHT22;8310;44.626;11.176;2023-07-16T08:16:58;34.30;55.90
16402;DHT22;8310;44.626;11.176;2023-07-16T08:19:26;34.40;55.90
16402;DHT22;8310;44.626;11.176;2023-07-16T08:21:55;34.50;55.90
16402;DHT22;8310;44.626;11.176;2023-07-16T08:24:22;34.50;55.70
16402;DHT22;8310;44.626;11.176;2023-07-16T08:26:49;34.50;55.70
16402;DHT22;8310;44.626;11.176;2023-07-16T08:29:17;34.60;55.90
16402;DHT22;8310;44.626;11.176;2023-07-16T08:31:44;34.70;56.00
16402;DHT22;8310;44.626;11.176;2023-07-16T08:34:12;34.80;55.90
16402;DHT22;8310;44.626;11.176;2023-07-16T08:36:39;34.90;55.80
16402;DHT22;8310;44.626;11.176;2023-07-16T08:39:09;35.00;55.80
16402;DHT22;8310;44.626;11.176;2023-07-16T08:41:37;35.00;55.90
16402;DHT22;8310;44.626;11.176;2023-07-16T08:44:05;35.10;55.90
16402;DHT22;8310;44.626;11.176;2023-07-16T08:46:33;35.20;55.80
16402;DHT22;8310;44.626;11.176;2023-07-16T08:49:00;35.20;55.70
16402;DHT22;8310;44.626;11.176;2023-07-16T08:51:28;35.20;55.70
16402;DHT22;8310;44.626;11.176;2023-07-16T08:53:57;35.30;55.90
16402;DHT22;8310;44.626;11.176;2023-07-16T08:56:26;35.40;55.90
16402;DHT22;8310;44.626;11.176;2023-07-16T08:58:54;35.40;55.80
16402;DHT22;8310;44.626;11.176;2023-07-16T09:01:22;35.50;55.80
16402;DHT22;8310;44.626;11.176;2023-07-16T09:03:49;35.50;55.80
16402;DHT22;8310;44.626;11.176;2023-07-16T09:06:16;35.60;55.80
16402;DHT22;8310;44.626;11.176;2023-07-16T09:08:44;35.70;55.80
16402;DHT22;8310;44.626;11.176;2023-07-16T09:11:11;35.80;55.80
16402;DHT22;8310;44.626;11.176;2023-07-16T09:13:45;35.80;55.90
16402;DHT22;8310;44.626;11.176;2023-07-16T09:16:12;35.90;55.90
16402;DHT22;8310;44.626;11.176;2023-07-16T09:18:41;36.00;55.90
16402;DHT22;8310;44.626;11.176;2023-07-16T09:21:08;36.20;55.90
16402;DHT22;8310;44.626;11.176;2023-07-16T09:23:36;36.20;55.60
16402;DHT22;8310;44.626;11.176;2023-07-16T09:26:03;36.30;55.60
16402;DHT22;8310;44.626;11.176;2023-07-16T09:28:30;36.30;55.70
16402;DHT22;8310;44.626;11.176;2023-07-16T09:31:04;36.40;55.70
16402;DHT22;8310;44.626;11.176;2023-07-16T09:33:32;36.50;55.80
16402;DHT22;8310;44.626;11.176;2023-07-16T09:36:00;36.60;55.80
16402;DHT22;8310;44.626;11.176;2023-07-16T09:38:28;36.70;55.80
16402;DHT22;8310;44.626;11.176;2023-07-16T09:40:56;36.80;55.90
16402;DHT22;8310;44.626;11.176;2023-07-16T09:43:23;36.90;56.30
16402;DHT22;8310;44.626;11.176;2023-07-16T09:45:51;36.90;55.60
16402;DHT22;8310;44.626;11.176;2023-07-16T09:48:20;36.90;55.10
16402;DHT22;8310;44.626;11.176;2023-07-16T09:50:49;36.80;55.10
16402;DHT22;8310;44.626;11.176;2023-07-16T09:53:17;36.80;55.00
16402;DHT22;8310;44.626;11.176;2023-07-16T09:55:45;36.70;54.80
16402;DHT22;8310;44.626;11.176;2023-07-16T09:58:13;36.70;54.90
16402;DHT22;8310;44.626;11.176;2023-07-16T10:00:42;36.80;55.00
16402;DHT22;8310;44.626;11.176;2023-07-16T10:03:09;36.80;54.90
16402;DHT22;8310;44.626;11.176;2023-07-16T10:05:38;36.70;55.00
16402;DHT22;8310;44.626;11.176;2023-07-16T10:08:14;36.80;55.10
16402;DHT22;8310;44.626;11.176;2023-07-16T10:10:42;36.90;55.40
16402;DHT22;8310;44.626;11.176;2023-07-16T10:13:11;37.00;55.60
16402;DHT22;8310;44.626;11.176;2023-07-16T10:15:39;37.20;55.40
16402;DHT22;8310;44.626;11.176;2023-07-16T10:18:07;37.20;55.20
16402;DHT22;8310;44.626;11.176;2023-07-16T10:20:35;37.20;54.90
16402;DHT22;8310;44.626;11.176;2023-07-16T10:23:12;37.10;54.60
16402;DHT22;8310;44.626;11.176;2023-07-16T10:25:40;37.00;54.60
16402;DHT22;8310;44.626;11.176;2023-07-16T10:28:08;37.00;54.80
16402;DHT22;8310;44.626;11.176;2023-07-16T10:30:35;37.00;54.90
16402;DHT22;8310;44.626;11.176;2023-07-16T10:33:03;37.10;55.20
16402;DHT22;8310;44.626;11.176;2023-07-16T10:35:34;37.10;55.00
16402;DHT22;8310;44.626;11.176;2023-07-16T10:38:01;37.20;54.80
16402;DHT22;8310;44.626;11.176;2023-07-16T10:40:30;37.10;54.70
16402;DHT22;8310;44.626;11.176;2023-07-16T10:42:57;37.10;54.80
16402;DHT22;8310;44.626;11.176;2023-07-16T10:45:24;37.10;54.80
16402;DHT22;8310;44.626;11.176;2023-07-16T10:47:52;37.20;54.80
16402;DHT22;8310;44.626;11.176;2023-07-16T10:50:19;37.20;54.80
16402;DHT22;8310;44.626;11.176;2023-07-16T10:52:50;37.30;54.60
16402;DHT22;8310;44.626;11.176;2023-07-16T10:55:17;37.30;54.40
16402;DHT22;8310;44.626;11.176;2023-07-16T10:57:47;37.20;54.40
16402;DHT22;8310;44.626;11.176;2023-07-16T11:00:15;37.20;54.30
16402;DHT22;8310;44.626;11.176;2023-07-16T11:02:43;37.20;53.90
16402;DHT22;8310;44.626;11.176;2023-07-16T11:05:14;37.10;54.00
16402;DHT22;8310;44.626;11.176;2023-07-16T11:07:46;37.10;54.30
16402;DHT22;8310;44.626;11.176;2023-07-16T11:10:14;37.10;54.40
16402;DHT22;8310;44.626;11.176;2023-07-16T11:12:42;37.20;54.60
16402;DHT22;8310;44.626;11.176;2023-07-16T11:15:11;37.30;54.60
16402;DHT22;8310;44.626;11.176;2023-07-16T11:17:38;37.40;54.70
16402;DHT22;8310;44.626;11.176;2023-07-16T11:20:06;37.40;54.60
16402;DHT22;8310;44.626;11.176;2023-07-16T11:22:36;37.50;54.70
16402;DHT22;8310;44.626;11.176;2023-07-16T11:25:04;37.60;54.60
16402;DHT22;8310;44.626;11.176;2023-07-16T11:27:39;37.70;55.30
16402;DHT22;8310;44.626;11.176;2023-07-16T11:30:07;37.80;54.40
16402;DHT22;8310;44.626;11.176;2023-07-16T11:32:37;37.70;54.40
16402;DHT22;8310;44.626;11.176;2023-07-16T11:35:05;37.80;54.20
16402;DHT22;8310;44.626;11.176;2023-07-16T11:37:33;37.70;54.00
16402;DHT22;8310;44.626;11.176;2023-07-16T11:40:02;37.70;54.00
16402;DHT22;8310;44.626;11.176;2023-07-16T11:42:30;37.60;53.90
16402;DHT22;8310;44.626;11.176;2023-07-16T11:44:58;37.60;54.00
16402;DHT22;8310;44.626;11.176;2023-07-16T11:47:25;37.60;54.50
16402;DHT22;8310;44.626;11.176;2023-07-16T11:49:54;37.70;54.30
16402;DHT22;8310;44.626;11.176;2023-07-16T11:52:22;37.70;54.00
16402;DHT22;8310;44.626;11.176;2023-07-16T11:54:51;37.70;54.30
16402;DHT22;8310;44.626;11.176;2023-07-16T11:57:19;37.80;54.60
16402;DHT22;8310;44.626;11.176;2023-07-16T11:59:46;38.00;54.70
16402;DHT22;8310;44.626;11.176;2023-07-16T12:02:13;38.20;54.80
16402;DHT22;8310;44.626;11.176;2023-07-16T12:04:41;38.30;54.70
16402;DHT22;8310;44.626;11.176;2023-07-16T12:07:10;38.40;54.40
16402;DHT22;8310;44.626;11.176;2023-07-16T12:09:38;38.40;54.30
16402;DHT22;8310;44.626;11.176;2023-07-16T12:12:05;38.40;54.40
16402;DHT22;8310;44.626;11.176;2023-07-16T12:14:35;38.50;54.20
16402;DHT22;8310;44.626;11.176;2023-07-16T12:17:03;38.50;53.80
16402;DHT22;8310;44.626;11.176;2023-07-16T12:19:30;38.50;53.70
16402;DHT22;8310;44.626;11.176;2023-07-16T12:21:58;38.50;54.00
16402;DHT22;8310;44.626;11.176;2023-07-16T12:24:26;38.50;53.90
16402;DHT22;8310;44.626;11.176;2023-07-16T12:26:54;38.60;53.70
16402;DHT22;8310;44.626;11.176;2023-07-16T12:29:21;38.60;53.90
16402;DHT22;8310;44.626;11.176;2023-07-16T12:31:49;38.60;54.00
16402;DHT22;8310;44.626;11.176;2023-07-16T12:34:16;38.70;54.00
16402;DHT22;8310;44.626;11.176;2023-07-16T12:36:43;38.80;54.00
16402;DHT22;8310;44.626;11.176;2023-07-16T12:39:11;38.80;53.80
16402;DHT22;8310;44.626;11.176;2023-07-16T12:41:40;38.70;53.40
16402;DHT22;8310;44.626;11.176;2023-07-16T12:44:07;38.70;53.50
16402;DHT22;8310;44.626;11.176;2023-07-16T12:46:34;38.70;53.60
16402;DHT22;8310;44.626;11.176;2023-07-16T12:49:01;38.70;53.60
16402;DHT22;8310;44.626;11.176;2023-07-16T12:51:29;38.70;53.30
16402;DHT22;8310;44.626;11.176;2023-07-16T12:53:56;38.60;53.20
16402;DHT22;8310;44.626;11.176;2023-07-16T12:56:23;38.60;53.20
16402;DHT22;8310;44.626;11.176;2023-07-16T12:58:52;38.60;53.30
16402;DHT22;8310;44.626;11.176;2023-07-16T13:01:20;38.60;53.20
16402;DHT22;8310;44.626;11.176;2023-07-16T13:03:47;38.60;53.30
16402;DHT22;8310;44.626;11.176;2023-07-16T13:06:15;38.60;53.30
16402;DHT22;8310;44.626;11.176;2023-07-16T13:08:42;38.60;53.20
16402;DHT22;8310;44.626;11.176;2023-07-16T13:11:09;38.60;53.30
16402;DHT22;8310;44.626;11.176;2023-07-16T13:13:36;38.50;53.20
16402;DHT22;8310;44.626;11.176;2023-07-16T13:16:05;38.60;53.50
16402;DHT22;8310;44.626;11.176;2023-07-16T13:18:32;38.70;53.70
16402;DHT22;8310;44.626;11.176;2023-07-16T13:21:00;38.80;53.80
16402;DHT22;8310;44.626;11.176;2023-07-16T13:23:27;39.00;53.80
16402;DHT22;8310;44.626;11.176;2023-07-16T13:25:54;39.10;53.60
16402;DHT22;8310;44.626;11.176;2023-07-16T13:28:21;39.20;53.60
16402;DHT22;8310;44.626;11.176;2023-07-16T13:30:49;39.20;53.30
16402;DHT22;8310;44.626;11.176;2023-07-16T13:33:18;39.20;53.30
16402;DHT22;8310;44.626;11.176;2023-07-16T13:35:46;39.30;53.60
16402;DHT22;8310;44.626;11.176;2023-07-16T13:38:14;39.30;53.40
16402;DHT22;8310;44.626;11.176;2023-07-16T13:40:41;39.30;53.40
16402;DHT22;8310;44.626;11.176;2023-07-16T13:43:08;39.40;53.30
16402;DHT22;8310;44.626;11.176;2023-07-16T13:57:04;39.40;52.90
16402;DHT22;8310;44.626;11.176;2023-07-16T13:59:31;39.80;53.20
16402;DHT22;8310;44.626;11.176;2023-07-16T14:01:59;39.90;53.00
16402;DHT22;8310;44.626;11.176;2023-07-16T14:04:26;39.90;53.10
16402;DHT22;8310;44.626;11.176;2023-07-16T14:06:54;40.00;53.80
16402;DHT22;8310;44.626;11.176;2023-07-16T14:09:22;40.00;53.00
16402;DHT22;8310;44.626;11.176;2023-07-16T14:11:49;40.10;53.10
16402;DHT22;8310;44.626;11.176;2023-07-16T14:28:03;40.30;52.70
16402;DHT22;8310;44.626;11.176;2023-07-16T14:30:31;40.60;53.70
16402;DHT22;8310;44.626;11.176;2023-07-16T14:32:58;40.60;53.00
16402;DHT22;8310;44.626;11.176;2023-07-16T14:35:27;40.70;52.80
16402;DHT22;8310;44.626;11.176;2023-07-16T14:37:54;40.80;52.80
16402;DHT22;8310;44.626;11.176;2023-07-16T14:40:22;40.80;52.80
16402;DHT22;8310;44.626;11.176;2023-07-16T14:42:49;40.80;52.50
16402;DHT22;8310;44.626;11.176;2023-07-16T14:45:18;40.80;52.20
16402;DHT22;8310;44.626;11.176;2023-07-16T14:47:45;40.60;51.90
16402;DHT22;8310;44.626;11.176;2023-07-16T14:50:12;40.50;52.00
16402;DHT22;8310;44.626;11.176;2023-07-16T14:52:40;40.40;52.10
16402;DHT22;8310;44.626;11.176;2023-07-16T14:55:08;40.40;52.20
16402;DHT22;8310;44.626;11.176;2023-07-16T14:57:35;40.40;52.10
16402;DHT22;8310;44.626;11.176;2023-07-16T15:00:02;40.30;51.90
16402;DHT22;8310;44.626;11.176;2023-07-16T15:02:33;40.30;51.90
16402;DHT22;8310;44.626;11.176;2023-07-16T15:05:01;40.20;51.60
16402;DHT22;8310;44.626;11.176;2023-07-16T15:07:30;40.00;51.40
16402;DHT22;8310;44.626;11.176;2023-07-16T15:09:57;39.90;51.50
16402;DHT22;8310;44.626;11.176;2023-07-16T15:12:25;39.80;51.60
16402;DHT22;8310;44.626;11.176;2023-07-16T15:14:52;39.80;51.60
16402;DHT22;8310;44.626;11.176;2023-07-16T15:17:20;39.80;51.50
16402;DHT22;8310;44.626;11.176;2023-07-16T15:19:49;39.80;51.60
16402;DHT22;8310;44.626;11.176;2023-07-16T15:22:17;39.80;51.70
16402;DHT22;8310;44.626;11.176;2023-07-16T15:24:45;39.90;51.70
16402;DHT22;8310;44.626;11.176;2023-07-16T15:27:13;39.80;51.40
16402;DHT22;8310;44.626;11.176;2023-07-16T15:29:41;39.80;50.60
16402;DHT22;8310;44.626;11.176;2023-07-16T15:32:08;39.60;50.80
16402;DHT22;8310;44.626;11.176;2023-07-16T15:34:35;39.50;50.70
16402;DHT22;8310;44.626;11.176;2023-07-16T15:37:04;39.50;51.10
16402;DHT22;8310;44.626;11.176;2023-07-16T15:39:32;39.50;51.20
16402;DHT22;8310;44.626;11.176;2023-07-16T15:42:00;39.50;51.30
16402;DHT22;8310;44.626;11.176;2023-07-16T15:44:27;39.50;51.30
16402;DHT22;8310;44.626;11.176;2023-07-16T15:46:54;39.50;51.30
16402;DHT22;8310;44.626;11.176;2023-07-16T15:49:22;39.50;51.50
16402;DHT22;8310;44.626;11.176;2023-07-16T15:51:49;39.60;51.50
16402;DHT22;8310;44.626;11.176;2023-07-16T15:54:18;39.60;51.50
16402;DHT22;8310;44.626;11.176;2023-07-16T15:56:45;39.70;51.60
16402;DHT22;8310;44.626;11.176;2023-07-16T15:59:13;39.80;51.40